createdAt,value
2019-04-21T00:02:18.796Z,87.70
2019-04-21T00:05:33.447Z,88.90
2019-04-21T00:08:45.137Z,88.70
2019-04-21T00:11:49.637Z,89.10
2019-04-21T00:14:47.178Z,89.50
2019-04-21T00:17:49.333Z,90.40
2019-04-21T00:20:54.588Z,90.10
2019-04-21T00:24:26.548Z,90.20
2019-04-21T00:27:33.821Z,90.70
2019-04-21T00:30:45.234Z,90.50
2019-04-21T00:33:34.341Z,90.60
2019-04-21T00:36:48.890Z,91.10
2019-04-21T00:40:06.386Z,91.20
2019-04-21T00:43:03.724Z,91.00
2019-04-21T00:46:04.850Z,91.40
2019-04-21T00:49:18.273Z,91.80
2019-04-21T00:52:46.004Z,91.60
2019-04-21T00:55:44.517Z,91.50
2019-04-21T00:58:47.736Z,91.50
2019-04-21T01:01:49.334Z,92.10
2019-04-21T01:05:00.134Z,92.00
2019-04-21T01:08:05.127Z,92.40
2019-04-21T01:11:12.321Z,92.80
2019-04-21T01:14:27.241Z,92.80
2019-04-21T01:17:22.956Z,92.80
2019-04-21T01:20:16.875Z,93.10
2019-04-21T01:23:15.048Z,93.30
2019-04-21T01:26:32.579Z,93.30
2019-04-21T01:29:46.564Z,93.50
2019-04-21T01:32:53.988Z,93.50
2019-04-21T01:35:58.359Z,93.30
2019-04-21T01:39:07.929Z,93.40
2019-04-21T01:42:12.726Z,93.60
2019-04-21T01:45:18.905Z,93.40
2019-04-21T01:48:21.568Z,93.60
2019-04-21T01:51:28.105Z,93.80
2019-04-21T01:54:43.585Z,94.20
2019-04-21T01:57:48.096Z,94.30
2019-04-21T02:00:52.039Z,94.00
2019-04-21T02:07:12.990Z,94.50
2019-04-21T02:10:21.108Z,94.70
2019-04-21T02:13:17.125Z,94.90
2019-04-21T02:16:28.292Z,95.10
2019-04-21T02:19:28.659Z,95.00
2019-04-21T02:22:46.348Z,95.10
2019-04-21T02:25:44.268Z,95.10
2019-04-21T02:28:58.952Z,94.90
2019-04-21T02:32:10.401Z,94.80
2019-04-21T02:38:33.800Z,95.30
2019-04-21T02:41:31.183Z,95.70
2019-04-21T02:44:37.504Z,95.80
2019-04-21T02:47:50.395Z,96.10
2019-04-21T02:50:47.274Z,96.20
2019-04-21T02:54:28.593Z,96.30
2019-04-21T02:57:03.280Z,96.30
2019-04-21T03:03:26.006Z,96.60
2019-04-21T03:06:29.494Z,96.50
2019-04-21T03:09:33.523Z,96.50
2019-04-21T03:12:28.990Z,96.20
2019-04-21T03:15:47.269Z,96.20
2019-04-21T03:18:56.564Z,96.50
2019-04-21T03:21:57.244Z,96.50
2019-04-21T03:32:02.097Z,96.80
2019-04-21T03:34:41.187Z,96.90
2019-04-21T03:37:35.400Z,97.00
2019-04-21T03:40:32.300Z,97.10
2019-04-21T03:43:47.961Z,97.00
2019-04-21T03:47:01.699Z,97.00
2019-04-21T03:53:07.009Z,97.00
2019-04-21T03:59:12.663Z,97.30
2019-04-21T04:02:26.324Z,97.30
2019-04-21T04:06:02.026Z,97.70
2019-04-21T04:09:14.282Z,97.30
2019-04-21T04:15:18.657Z,97.40
2019-04-21T04:18:29.894Z,97.50
2019-04-21T04:21:30.785Z,97.70
2019-04-21T04:24:31.664Z,98.00
2019-04-21T04:27:51.483Z,97.90
2019-04-21T04:30:47.595Z,98.30
2019-04-21T04:37:05.395Z,98.60
2019-04-21T04:40:23.300Z,98.50
2019-04-21T04:43:27.894Z,98.30
2019-04-21T04:46:18.399Z,98.60
2019-04-21T04:49:38.669Z,98.60
2019-04-21T04:55:39.533Z,99.00
2019-04-21T04:59:20.107Z,98.70
2019-04-21T05:05:07.084Z,99.10
2019-04-21T05:08:14.369Z,98.90
2019-04-21T05:11:23.028Z,98.90
2019-04-21T05:17:30.960Z,99.20
2019-04-21T05:20:41.854Z,99.30
2019-04-21T05:23:26.691Z,99.20
2019-04-21T05:26:27.405Z,99.50
2019-04-21T05:29:37.589Z,99.30
2019-04-21T05:33:00.012Z,99.60
2019-04-21T05:36:11.106Z,98.90
2019-04-21T05:39:24.817Z,97.60
2019-04-21T05:42:35.329Z,97.40
2019-04-21T05:45:50.039Z,97.70
2019-04-21T05:49:00.816Z,97.60
2019-04-21T05:52:00.237Z,97.00
2019-04-21T05:55:16.680Z,97.20
2019-04-21T05:58:16.399Z,96.80
2019-04-21T06:01:55.534Z,96.20
2019-04-21T06:04:52.631Z,96.10
2019-04-21T06:07:55.285Z,96.20
2019-04-21T06:10:47.397Z,95.30
2019-04-21T06:13:55.532Z,95.20
2019-04-21T06:17:01.500Z,94.10
2019-04-21T06:23:13.570Z,91.40
2019-04-21T06:26:44.897Z,89.00
2019-04-21T06:29:26.448Z,83.60
2019-04-21T06:41:58.557Z,55.10
2019-04-21T06:45:20.187Z,53.20
2019-04-21T06:48:18.439Z,49.80
2019-04-21T06:51:26.546Z,52.40
2019-04-21T06:54:29.153Z,52.60
2019-04-21T06:57:35.732Z,54.40
2019-04-21T07:00:39.118Z,56.70
2019-04-21T07:03:55.480Z,58.10
2019-04-21T07:06:56.258Z,60.10
2019-04-21T07:10:01.440Z,59.90
2019-04-21T07:13:03.906Z,62.50
2019-04-21T07:16:10.745Z,60.80
2019-04-21T07:19:21.395Z,63.30
2019-04-21T07:22:24.693Z,62.50
2019-04-21T07:25:32.791Z,61.80
2019-04-21T07:28:46.149Z,57.30
2019-04-21T07:31:47.129Z,55.30
2019-04-21T07:34:51.414Z,58.30
2019-04-21T07:37:53.495Z,56.90
2019-04-21T07:40:53.889Z,57.70
2019-04-21T07:43:59.762Z,60.70
2019-04-21T07:47:13.414Z,57.50
2019-04-21T07:50:28.594Z,56.50
2019-04-21T07:53:40.641Z,57.00
2019-04-21T07:56:32.460Z,58.70
2019-04-21T07:59:56.553Z,57.60
2019-04-21T08:02:54.457Z,58.20
2019-04-21T08:06:02.390Z,55.30
2019-04-21T08:09:08.936Z,56.70
2019-04-21T08:12:08.118Z,59.30
2019-04-21T08:15:36.523Z,60.00
2019-04-21T08:18:27.008Z,58.60
2019-04-21T08:21:37.157Z,57.80
2019-04-21T08:24:42.580Z,57.30
2019-04-21T08:27:56.815Z,56.00
2019-04-21T08:30:50.217Z,55.50
2019-04-21T08:34:00.726Z,55.10
2019-04-21T08:37:08.768Z,54.60
2019-04-21T08:40:15.757Z,56.20
2019-04-21T08:43:23.820Z,54.50
2019-04-21T08:46:26.722Z,52.00
2019-04-21T08:49:27.761Z,51.60
2019-04-21T08:52:44.463Z,51.40
2019-04-21T08:55:55.418Z,51.50
2019-04-21T08:59:22.226Z,52.10
2019-04-21T09:02:27.102Z,53.00
2019-04-21T09:05:23.376Z,55.00
2019-04-21T09:08:32.872Z,50.90
2019-04-21T09:11:40.362Z,53.00
2019-04-21T09:14:50.685Z,53.40
2019-04-21T09:17:44.761Z,52.10
2019-04-21T09:21:01.106Z,51.10
2019-04-21T09:24:04.586Z,53.00
2019-04-21T09:27:11.297Z,52.10
2019-04-21T09:30:04.748Z,53.90
2019-04-21T09:33:07.397Z,51.10
2019-04-21T09:36:15.234Z,51.60
2019-04-21T09:39:22.252Z,48.70
2019-04-21T09:42:33.201Z,50.40
2019-04-21T09:45:30.818Z,48.70
2019-04-21T09:48:48.521Z,51.00
2019-04-21T09:51:41.840Z,54.60
2019-04-21T09:54:56.448Z,53.60
2019-04-21T09:57:56.936Z,51.90
2019-04-21T10:01:09.816Z,52.20
2019-04-21T10:04:05.803Z,50.50
2019-04-21T10:07:23.389Z,52.80
2019-04-21T10:10:17.341Z,48.20
2019-04-21T10:13:22.989Z,51.20
2019-04-21T10:16:40.575Z,48.80
2019-04-21T10:19:46.376Z,49.20
2019-04-21T10:22:51.272Z,51.80
2019-04-21T10:25:56.824Z,47.90
2019-04-21T10:29:08.229Z,49.00
2019-04-21T10:32:09.071Z,42.60
2019-04-21T10:35:15.007Z,46.20
2019-04-21T10:38:30.190Z,49.40
2019-04-21T10:41:27.577Z,42.60
2019-04-21T10:44:32.330Z,42.30
2019-04-21T10:47:38.786Z,40.00
2019-04-21T10:50:45.212Z,39.40
2019-04-21T10:53:53.871Z,39.90
2019-04-21T10:56:58.829Z,38.50
2019-04-21T11:00:04.498Z,38.20
2019-04-21T11:03:29.061Z,37.30
2019-04-21T11:06:34.757Z,37.40
2019-04-21T11:09:40.203Z,42.00
2019-04-21T11:12:47.565Z,36.40
2019-04-21T11:15:50.995Z,39.60
2019-04-21T11:18:56.014Z,38.90
2019-04-21T11:22:01.100Z,41.10
2019-04-21T11:25:07.435Z,36.60
2019-04-21T11:28:14.304Z,36.90
2019-04-21T11:31:18.773Z,35.80
2019-04-21T11:34:25.077Z,35.70
2019-04-21T11:37:32.321Z,35.00
2019-04-21T11:40:38.084Z,36.50
2019-04-21T11:43:43.266Z,36.20
2019-04-21T11:46:48.815Z,35.10
2019-04-21T11:49:54.861Z,39.60
2019-04-21T11:52:59.373Z,39.80
2019-04-21T11:56:04.865Z,33.20
2019-04-21T11:59:09.963Z,36.70
2019-04-21T12:02:15.227Z,33.10
2019-04-21T12:05:21.343Z,38.30
2019-04-21T12:08:33.207Z,34.30
2019-04-21T12:11:33.681Z,36.00
2019-04-21T12:14:39.625Z,35.50
2019-04-21T12:17:45.845Z,37.80
2019-04-21T12:20:51.624Z,33.60
2019-04-21T12:23:56.663Z,33.80
2019-04-21T12:27:02.253Z,35.40
2019-04-21T12:30:11.421Z,31.90
2019-04-21T12:33:18.195Z,36.50
2019-04-21T12:36:24.049Z,38.10
2019-04-21T12:39:30.436Z,35.10
2019-04-21T12:42:37.627Z,36.20
2019-04-21T12:45:42.024Z,37.10
2019-04-21T12:48:46.920Z,34.40
2019-04-21T12:51:51.588Z,35.10
2019-04-21T12:54:57.602Z,38.30
2019-04-21T12:58:03.407Z,33.80
2019-04-21T13:01:09.222Z,32.90
2019-04-21T13:04:13.828Z,34.10
2019-04-21T13:07:19.407Z,32.60
2019-04-21T13:10:24.424Z,33.80
2019-04-21T13:13:30.144Z,34.10
2019-04-21T13:16:34.758Z,33.20
2019-04-21T13:19:39.200Z,36.10
2019-04-21T13:22:43.981Z,35.40
2019-04-21T13:25:49.751Z,31.70
2019-04-21T13:28:54.446Z,34.50
2019-04-21T13:32:00.132Z,32.10
2019-04-21T13:35:06.113Z,34.30
2019-04-21T13:38:19.949Z,35.70
2019-04-21T13:41:32.811Z,35.10
2019-04-21T13:44:24.953Z,31.10
2019-04-21T13:47:30.530Z,34.20
2019-04-21T13:50:35.466Z,35.40
2019-04-21T13:53:40.013Z,33.60
2019-04-21T13:56:44.998Z,36.40
2019-04-21T13:59:51.252Z,33.30
2019-04-21T14:02:56.453Z,32.50
2019-04-21T14:06:02.402Z,32.10
2019-04-21T14:09:10.996Z,32.10
2019-04-21T14:12:15.441Z,32.20
2019-04-21T14:15:22.035Z,32.60
2019-04-21T14:18:27.057Z,34.90
2019-04-21T14:21:31.786Z,30.90
2019-04-21T14:24:37.086Z,32.10
2019-04-21T14:27:44.302Z,30.50
2019-04-21T14:30:50.350Z,30.60
2019-04-21T14:33:56.308Z,30.80
2019-04-21T14:37:02.544Z,31.20
2019-04-21T14:40:15.519Z,31.30
2019-04-21T14:43:16.464Z,29.50
2019-04-21T14:46:22.947Z,31.50
2019-04-21T14:49:47.149Z,31.90
2019-04-21T14:53:08.128Z,32.30
2019-04-21T14:56:13.280Z,30.30
2019-04-21T14:59:19.228Z,33.20
2019-04-21T15:02:23.712Z,29.90
2019-04-21T15:05:29.369Z,30.20
2019-04-21T15:08:35.235Z,28.90
2019-04-21T15:11:40.183Z,32.90
2019-04-21T15:14:44.941Z,33.10
2019-04-21T15:17:49.527Z,30.20
2019-04-21T15:20:55.182Z,29.50
2019-04-21T15:24:00.399Z,30.30
2019-04-21T15:27:05.118Z,32.60
2019-04-21T15:30:11.054Z,31.90
2019-04-21T15:33:16.274Z,30.90
2019-04-21T15:36:21.055Z,32.30
2019-04-21T15:39:25.785Z,32.80
2019-04-21T15:42:30.637Z,32.70
2019-04-21T15:45:35.103Z,34.40
2019-04-21T15:48:41.117Z,31.40
2019-04-21T15:51:46.389Z,33.00
2019-04-21T15:54:52.456Z,33.40
2019-04-21T15:58:02.610Z,33.10
2019-04-21T16:01:21.165Z,30.30
2019-04-21T16:04:25.612Z,32.80
2019-04-21T16:07:30.062Z,31.20
2019-04-21T16:10:43.677Z,34.40
2019-04-21T16:13:41.680Z,31.90
2019-04-21T16:16:47.458Z,33.10
2019-04-21T16:19:52.254Z,33.00
2019-04-21T16:22:56.904Z,33.40
2019-04-21T16:26:02.585Z,32.80
2019-04-21T16:29:08.965Z,34.40
2019-04-21T16:32:16.353Z,32.30
2019-04-21T16:35:21.727Z,32.60
2019-04-21T16:38:26.622Z,33.70
2019-04-21T16:41:32.134Z,34.00
2019-04-21T16:44:37.055Z,35.20
2019-04-21T16:47:42.146Z,36.30
2019-04-21T16:50:47.803Z,36.20
2019-04-21T16:53:53.988Z,33.30
2019-04-21T16:57:03.730Z,33.50
2019-04-21T17:00:12.798Z,34.00
2019-04-21T17:03:18.826Z,35.90
2019-04-21T17:06:24.864Z,34.80
2019-04-21T17:09:30.653Z,35.90
2019-04-21T17:12:35.663Z,35.00
2019-04-21T17:15:56.613Z,36.30
2019-04-21T17:18:57.440Z,34.20
2019-04-21T17:21:53.505Z,34.70
2019-04-21T17:24:58.335Z,35.00
2019-04-21T17:28:03.580Z,36.10
2019-04-21T17:31:08.596Z,36.20
2019-04-21T17:34:17.990Z,38.40
2019-04-21T17:37:22.036Z,39.70
2019-04-21T17:40:27.312Z,42.00
2019-04-21T17:43:32.000Z,41.70
2019-04-21T17:46:45.824Z,40.70
2019-04-21T17:49:43.130Z,41.00
2019-04-21T17:53:10.696Z,43.80
2019-04-21T17:56:48.132Z,43.40
2019-04-21T17:59:53.737Z,43.70
2019-04-21T18:02:47.906Z,44.80
2019-04-21T18:05:46.917Z,46.10
2019-04-21T18:09:04.392Z,47.00
2019-04-21T18:12:05.790Z,47.50
2019-04-21T18:15:01.436Z,47.70
2019-04-21T18:17:58.678Z,48.50
2019-04-21T18:21:14.580Z,48.70
2019-04-21T18:24:31.876Z,49.00
2019-04-21T18:27:29.716Z,49.60
2019-04-21T18:30:48.718Z,48.80
2019-04-21T18:34:03.497Z,46.60
2019-04-21T18:37:05.488Z,48.70
2019-04-21T18:40:16.762Z,49.30
2019-04-21T18:43:48.918Z,49.40
2019-04-21T18:46:52.567Z,49.50
2019-04-21T18:49:44.096Z,47.60
2019-04-21T18:53:04.860Z,46.70
2019-04-21T18:56:03.748Z,48.20
2019-04-21T18:59:04.587Z,49.20
2019-04-21T19:02:11.233Z,49.50
2019-04-21T19:05:21.039Z,50.00
2019-04-21T19:08:39.249Z,50.10
2019-04-21T19:11:49.945Z,50.10
2019-04-21T19:14:51.057Z,49.60
2019-04-21T19:18:29.650Z,50.60
2019-04-21T19:21:00.270Z,50.30
2019-04-21T19:24:17.884Z,50.30
2019-04-21T19:27:17.619Z,50.20
2019-04-21T19:33:29.640Z,52.50
2019-04-21T19:36:21.559Z,53.70
2019-04-21T19:39:39.168Z,53.30
2019-04-21T19:42:43.770Z,54.60
2019-04-21T19:45:54.096Z,54.50
2019-04-21T19:49:10.683Z,55.30
2019-04-21T19:52:01.286Z,56.00
2019-04-21T19:54:58.641Z,56.60
2019-04-21T19:58:05.097Z,56.00
2019-04-21T20:01:11.782Z,56.40
2019-04-21T20:04:16.912Z,56.60
2019-04-21T20:07:38.191Z,56.40
2019-04-21T20:10:48.465Z,56.30
2019-04-21T20:14:13.713Z,56.80
2019-04-21T20:16:54.485Z,57.90
2019-04-21T20:19:47.899Z,58.60
2019-04-21T20:22:54.235Z,58.70
2019-04-21T20:26:02.429Z,59.80
2019-04-21T20:29:22.998Z,59.50
2019-04-21T20:35:46.906Z,60.10
2019-04-21T20:38:35.804Z,60.70
2019-04-21T20:41:40.944Z,60.60
2019-04-21T20:45:14.812Z,61.40
2019-04-21T20:47:48.983Z,61.80
2019-04-21T20:51:06.408Z,63.00
2019-04-21T20:54:17.602Z,63.60
2019-04-21T20:57:18.986Z,64.00
2019-04-21T21:00:33.998Z,63.90
2019-04-21T21:03:34.904Z,64.40
2019-04-21T21:06:38.483Z,65.20
2019-04-21T21:09:52.258Z,66.10
2019-04-21T21:13:00.597Z,65.40
2019-04-21T21:16:10.230Z,67.00
2019-04-21T21:22:06.023Z,66.90
2019-04-21T21:25:25.587Z,67.20
2019-04-21T21:28:22.566Z,65.90
2019-04-21T21:31:31.304Z,69.10
2019-04-21T21:34:42.559Z,68.80
2019-04-21T21:37:49.530Z,68.90
2019-04-21T21:40:45.567Z,68.60
2019-04-21T21:43:39.438Z,69.30
2019-04-21T21:46:58.894Z,70.50
2019-04-21T21:50:01.196Z,70.00
2019-04-21T21:53:04.270Z,71.10
2019-04-21T21:56:04.570Z,70.40
2019-04-21T21:59:15.964Z,70.70
2019-04-21T22:02:26.239Z,70.50
2019-04-21T22:05:26.031Z,70.30
2019-04-21T22:08:30.443Z,71.90
2019-04-21T22:11:35.879Z,71.80
2019-04-21T22:14:44.910Z,73.00
2019-04-21T22:18:07.332Z,73.50
2019-04-21T22:21:09.110Z,73.40
2019-04-21T22:24:08.720Z,74.20
2019-04-21T22:27:07.360Z,74.60
2019-04-21T22:30:14.659Z,75.10
2019-04-21T22:33:21.286Z,75.20
2019-04-21T22:36:35.518Z,76.50
2019-04-21T22:39:48.603Z,76.50
2019-04-21T22:42:50.104Z,76.80
2019-04-21T22:45:45.373Z,77.30
2019-04-21T22:48:53.123Z,77.40
2019-04-21T22:52:00.794Z,77.90
2019-04-21T22:55:08.254Z,78.00
2019-04-21T22:58:09.625Z,79.50
2019-04-21T23:01:20.111Z,79.30
2019-04-21T23:04:21.023Z,79.80
2019-04-21T23:07:26.623Z,80.80
2019-04-21T23:10:32.401Z,81.10
2019-04-21T23:13:40.042Z,81.20
2019-04-21T23:16:45.609Z,81.70
2019-04-21T23:20:09.528Z,81.60
2019-04-21T23:23:17.616Z,81.30
2019-04-21T23:26:23.757Z,81.30
2019-04-21T23:29:39.331Z,81.90
2019-04-21T23:32:29.424Z,83.20
2019-04-21T23:35:27.779Z,84.20
2019-04-21T23:38:34.939Z,83.30
2019-04-21T23:41:40.467Z,83.70
2019-04-21T23:44:47.032Z,83.00
2019-04-21T23:47:57.927Z,83.90
2019-04-21T23:51:01.866Z,84.90
2019-04-21T23:53:59.535Z,85.60
2019-04-21T23:57:14.206Z,85.10
